createdAt,value
2023-06-26T00:00:57.523Z,0
2023-06-26T00:03:56.799Z,0
2023-06-26T00:06:57.364Z,0.3333333333333333
2023-06-26T00:09:57.271Z,0
2023-06-26T00:12:57.431Z,0
2023-06-26T00:15:57.244Z,0
2023-06-26T00:18:56.743Z,0
2023-06-26T00:21:57.030Z,0
2023-06-26T00:24:57.341Z,0.3333333333333333
2023-06-26T00:27:56.808Z,1.6666666666666667
2023-06-26T00:30:58.053Z,2.3333333333333335
2023-06-26T00:33:56.938Z,0
2023-06-26T00:36:57.982Z,0
2023-06-26T00:39:57.122Z,0.3333333333333333
2023-06-26T00:42:57.304Z,0
2023-06-26T00:45:57.424Z,0.3333333333333333
2023-06-26T00:48:57.499Z,0
2023-06-26T00:51:56.888Z,0
2023-06-26T00:54:56.998Z,0.3333333333333333
2023-06-26T00:57:57.346Z,0
2023-06-26T01:00:57.585Z,0
2023-06-26T01:03:57.476Z,0
2023-06-26T01:06:57.872Z,1
2023-06-26T01:09:57.641Z,0
2023-06-26T01:12:59.952Z,1
2023-06-26T01:15:57.660Z,0
2023-06-26T01:18:56.837Z,0.3333333333333333
2023-06-26T01:21:57.492Z,0.6666666666666666
2023-06-26T01:24:57.627Z,0
2023-06-26T01:27:57.084Z,0
2023-06-26T01:30:58.376Z,0
2023-06-26T01:33:57.407Z,0
2023-06-26T01:36:56.681Z,0
2023-06-26T01:39:57.215Z,0
2023-06-26T01:42:57.433Z,0.3333333333333333
2023-06-26T01:45:57.522Z,0
2023-06-26T01:48:57.098Z,0
2023-06-26T01:51:57.014Z,1.6666666666666667
2023-06-26T01:54:57.776Z,0.3333333333333333
2023-06-26T01:57:57.012Z,0
2023-06-26T02:00:57.816Z,0
2023-06-26T02:03:57.581Z,0
2023-06-26T02:06:56.943Z,0
2023-06-26T02:09:57.595Z,1.6666666666666667
2023-06-26T02:12:56.818Z,0
2023-06-26T02:15:56.960Z,0.6666666666666666
2023-06-26T02:18:57.692Z,1.6666666666666667
2023-06-26T02:21:57.408Z,0
2023-06-26T02:24:57.113Z,0
2023-06-26T02:27:56.943Z,0
2023-06-26T02:30:56.950Z,0
2023-06-26T02:33:57.469Z,0
2023-06-26T02:36:56.957Z,0
2023-06-26T02:39:57.832Z,0.3333333333333333
2023-06-26T02:42:57.225Z,0.6666666666666666
2023-06-26T02:45:57.697Z,1.3333333333333333
2023-06-26T02:48:57.393Z,2.6666666666666665
2023-06-26T02:51:57.196Z,4.666666666666667
2023-06-26T02:54:57.140Z,7.666666666666667
2023-06-26T02:57:57.179Z,11.333333333333334
2023-06-26T03:00:57.906Z,14.666666666666666
2023-06-26T03:03:57.254Z,20.333333333333332
2023-06-26T03:06:57.386Z,25
2023-06-26T03:09:58.003Z,33.666666666666664
2023-06-26T03:12:57.767Z,39.333333333333336
2023-06-26T03:15:57.676Z,47.333333333333336
2023-06-26T03:18:57.178Z,58.333333333333336
2023-06-26T03:21:57.541Z,68.66666666666667
2023-06-26T03:24:57.120Z,82.33333333333333
2023-06-26T03:27:57.583Z,96
2023-06-26T03:30:57.364Z,110
2023-06-26T03:33:57.024Z,126.33333333333333
2023-06-26T03:36:57.850Z,141.33333333333334
2023-06-26T03:39:57.628Z,155.66666666666666
2023-06-26T03:42:57.514Z,170.33333333333334
2023-06-26T03:45:57.230Z,184
2023-06-26T03:48:57.372Z,200.33333333333334
2023-06-26T03:51:57.128Z,215
2023-06-26T03:54:57.454Z,232
2023-06-26T03:57:56.605Z,248.33333333333334
2023-06-26T04:00:57.345Z,262
2023-06-26T04:03:56.999Z,273.6666666666667
2023-06-26T04:06:57.195Z,285.6666666666667
2023-06-26T04:09:57.931Z,298.3333333333333
2023-06-26T04:12:57.151Z,309.3333333333333
2023-06-26T04:15:57.163Z,315.6666666666667
2023-06-26T04:18:57.429Z,322.3333333333333
2023-06-26T04:21:57.054Z,327
2023-06-26T04:24:57.599Z,334.3333333333333
2023-06-26T04:27:57.339Z,342
2023-06-26T04:30:57.142Z,348.6666666666667
2023-06-26T04:33:56.832Z,356
2023-06-26T04:36:56.952Z,364
2023-06-26T04:39:57.759Z,364.6666666666667
2023-06-26T04:42:57.441Z,365.6666666666667
2023-06-26T04:45:57.866Z,364.6666666666667
2023-06-26T04:48:56.764Z,373.3333333333333
2023-06-26T04:51:56.861Z,381.6666666666667
2023-06-26T04:54:57.131Z,394.3333333333333
2023-06-26T04:57:57.824Z,403.6666666666667
2023-06-26T05:00:58.319Z,407.6666666666667
2023-06-26T05:03:57.480Z,414.6666666666667
2023-06-26T05:06:57.207Z,420
2023-06-26T05:09:58.214Z,425.3333333333333
2023-06-26T05:12:57.311Z,428.6666666666667
2023-06-26T05:15:57.870Z,433
2023-06-26T05:18:58.112Z,437.3333333333333
2023-06-26T05:21:57.390Z,445
2023-06-26T05:24:57.633Z,444.3333333333333
2023-06-26T05:27:57.148Z,446.3333333333333
2023-06-26T05:30:57.899Z,448.6666666666667
2023-06-26T05:33:57.248Z,453
2023-06-26T05:36:56.996Z,459
2023-06-26T05:39:57.756Z,461.3333333333333
2023-06-26T05:42:57.418Z,463.3333333333333
2023-06-26T05:45:57.092Z,467.6666666666667
2023-06-26T05:48:57.524Z,474.3333333333333
2023-06-26T05:51:56.955Z,509.3333333333333
2023-06-26T05:54:58.018Z,485.3333333333333
2023-06-26T05:57:57.085Z,489.3333333333333
2023-06-26T06:00:58.235Z,514
2023-06-26T06:03:57.908Z,524.3333333333334
2023-06-26T06:06:57.603Z,557
2023-06-26T06:09:57.377Z,553.6666666666666
2023-06-26T06:12:57.746Z,554
2023-06-26T06:15:57.429Z,560.3333333333334
2023-06-26T06:18:57.854Z,560.3333333333334
2023-06-26T06:21:57.826Z,564
2023-06-26T06:24:58.319Z,568
2023-06-26T06:27:58.014Z,571.6666666666666
2023-06-26T06:30:57.670Z,573
2023-06-26T06:33:56.568Z,576.3333333333334
2023-06-26T06:36:57.414Z,576.3333333333334
2023-06-26T06:39:57.381Z,577
2023-06-26T06:42:57.233Z,576.6666666666666
2023-06-26T06:45:57.094Z,579.3333333333334
2023-06-26T06:48:57.903Z,582.6666666666666
2023-06-26T06:51:57.512Z,584.6666666666666
2023-06-26T06:54:56.812Z,588.3333333333334
2023-06-26T06:57:57.186Z,594.3333333333334
2023-06-26T07:01:03.457Z,597.6666666666666
2023-06-26T07:03:57.754Z,597
2023-06-26T07:06:56.770Z,600.6666666666666
2023-06-26T07:09:58.071Z,605.6666666666666
2023-06-26T07:12:56.861Z,611.6666666666666
2023-06-26T07:15:57.554Z,615
2023-06-26T07:18:57.602Z,613.3333333333334
2023-06-26T07:21:57.656Z,608.3333333333334
2023-06-26T07:24:57.503Z,610.3333333333334
2023-06-26T07:27:56.648Z,610
2023-06-26T07:30:57.317Z,609.3333333333334
2023-06-26T07:33:57.393Z,604
2023-06-26T07:36:57.005Z,610
2023-06-26T07:39:58.060Z,611.6666666666666
2023-06-26T07:42:57.610Z,610.6666666666666
2023-06-26T07:45:56.833Z,610.3333333333334
2023-06-26T07:48:57.950Z,612
2023-06-26T07:51:56.731Z,606.3333333333334
2023-06-26T07:54:57.722Z,585.3333333333334
2023-06-26T07:57:56.789Z,594.3333333333334
2023-06-26T08:00:57.751Z,605
2023-06-26T08:03:57.176Z,602.6666666666666
2023-06-26T08:06:57.182Z,598.3333333333334
2023-06-26T08:09:57.944Z,594.3333333333334
2023-06-26T08:12:57.942Z,586
2023-06-26T08:15:56.712Z,575.6666666666666
2023-06-26T08:18:57.581Z,579.3333333333334
2023-06-26T08:21:57.727Z,575
2023-06-26T08:24:57.731Z,578.6666666666666
2023-06-26T08:27:57.709Z,577.3333333333334
2023-06-26T08:30:57.384Z,579.3333333333334
2023-06-26T08:33:57.794Z,579.3333333333334
2023-06-26T08:36:57.553Z,577.6666666666666
2023-06-26T08:39:57.683Z,580.6666666666666
2023-06-26T08:42:57.457Z,586
2023-06-26T08:45:57.994Z,589
2023-06-26T08:48:57.454Z,592
2023-06-26T08:51:57.047Z,591.6666666666666
2023-06-26T08:54:57.285Z,591.6666666666666
2023-06-26T08:57:57.947Z,594
2023-06-26T09:00:57.096Z,595.6666666666666
2023-06-26T09:03:57.909Z,596
2023-06-26T09:06:57.830Z,598.6666666666666
2023-06-26T09:09:57.215Z,599.6666666666666
2023-06-26T09:12:57.045Z,602
2023-06-26T09:15:57.862Z,605.6666666666666
2023-06-26T09:18:56.915Z,611
2023-06-26T09:21:56.980Z,616.6666666666666
2023-06-26T09:24:56.978Z,619.3333333333334
2023-06-26T09:27:57.669Z,627.6666666666666
2023-06-26T09:30:57.565Z,634.6666666666666
2023-06-26T09:33:56.915Z,640.3333333333334
2023-06-26T09:36:57.920Z,646
2023-06-26T09:39:57.016Z,649.3333333333334
2023-06-26T09:42:57.613Z,648
2023-06-26T09:45:58.043Z,644
2023-06-26T09:48:57.524Z,642.3333333333334
2023-06-26T09:51:57.328Z,638
2023-06-26T09:54:57.815Z,629.3333333333334
2023-06-26T09:57:57.444Z,629.6666666666666
2023-06-26T10:00:58.373Z,626.3333333333334
2023-06-26T10:03:57.781Z,627.6666666666666
2023-06-26T10:06:57.683Z,627.3333333333334
2023-06-26T10:09:57.232Z,616.6666666666666
2023-06-26T10:12:57.450Z,619.6666666666666
2023-06-26T10:15:57.138Z,635
2023-06-26T10:18:57.751Z,614
2023-06-26T10:21:57.257Z,623
2023-06-26T10:24:56.813Z,607.6666666666666
2023-06-26T10:27:57.740Z,587.6666666666666
2023-06-26T10:30:57.274Z,606.6666666666666
2023-06-26T10:33:57.782Z,595
2023-06-26T10:36:57.099Z,589.6666666666666
2023-06-26T10:39:57.716Z,597.3333333333334
2023-06-26T10:42:58.226Z,590.3333333333334
2023-06-26T10:45:57.681Z,605
2023-06-26T10:48:56.845Z,619.6666666666666
2023-06-26T10:51:57.507Z,645.6666666666666
2023-06-26T10:54:57.635Z,688
2023-06-26T10:57:57.455Z,754.6666666666666
2023-06-26T11:00:57.483Z,792.3333333333334
2023-06-26T11:04:16.580Z,828.3333333333334
2023-06-26T11:06:57.580Z,712.3333333333334
2023-06-26T11:09:57.849Z,938
2023-06-26T11:12:58.015Z,868.3333333333334
2023-06-26T11:15:57.398Z,942.6666666666666
2023-06-26T11:18:57.491Z,901
2023-06-26T11:21:57.341Z,949
2023-06-26T11:24:57.797Z,945.3333333333334
2023-06-26T11:27:57.573Z,904
2023-06-26T11:30:58.217Z,786.6666666666666
2023-06-26T11:33:57.970Z,930.6666666666666
2023-06-26T11:36:57.509Z,892.6666666666666
2023-06-26T11:39:57.624Z,787
2023-06-26T11:42:58.033Z,725
2023-06-26T11:45:57.676Z,676.3333333333334
2023-06-26T11:48:57.966Z,664.3333333333334
2023-06-26T11:51:57.473Z,687.6666666666666
2023-06-26T11:54:57.720Z,686.6666666666666
2023-06-26T11:57:57.648Z,686
2023-06-26T12:00:57.625Z,685.6666666666666
2023-06-26T12:03:56.931Z,707.6666666666666
2023-06-26T12:06:57.139Z,687.6666666666666
2023-06-26T12:09:58.144Z,715.3333333333334
2023-06-26T12:12:57.986Z,768.3333333333334
2023-06-26T12:15:57.583Z,823
2023-06-26T12:18:58.021Z,828.6666666666666
2023-06-26T12:21:56.882Z,912.3333333333334
2023-06-26T12:24:57.991Z,938.6666666666666
2023-06-26T12:27:57.976Z,936
2023-06-26T12:30:57.310Z,947.6666666666666
2023-06-26T12:33:57.585Z,922
2023-06-26T12:36:57.845Z,875
2023-06-26T12:39:57.415Z,933
2023-06-26T12:42:57.217Z,929
2023-06-26T12:45:57.795Z,917.6666666666666
2023-06-26T12:48:57.598Z,848.6666666666666
2023-06-26T12:51:57.749Z,781.3333333333334
2023-06-26T12:54:57.986Z,941.6666666666666
2023-06-26T12:57:57.008Z,939.3333333333334
2023-06-26T13:00:57.850Z,944.6666666666666
2023-06-26T13:03:57.878Z,944
2023-06-26T13:06:57.925Z,948
2023-06-26T13:09:57.402Z,874
2023-06-26T13:12:58.333Z,933.6666666666666
2023-06-26T13:15:57.572Z,881.6666666666666
2023-06-26T13:18:57.464Z,804.3333333333334
2023-06-26T13:21:57.637Z,749.3333333333334
2023-06-26T13:24:57.385Z,669.6666666666666
2023-06-26T13:27:57.429Z,645.3333333333334
2023-06-26T13:30:58.032Z,623.3333333333334
2023-06-26T13:33:57.560Z,629
2023-06-26T13:36:57.486Z,636.6666666666666
2023-06-26T13:39:56.985Z,535.6666666666666
2023-06-26T13:42:57.630Z,540.6666666666666
2023-06-26T13:45:57.937Z,660
2023-06-26T13:48:57.275Z,673
2023-06-26T13:51:57.502Z,735.6666666666666
2023-06-26T13:54:57.332Z,768.3333333333334
2023-06-26T13:57:57.129Z,788.3333333333334
2023-06-26T14:00:57.618Z,889.3333333333334
2023-06-26T14:03:57.593Z,914.6666666666666
2023-06-26T14:06:57.506Z,763.3333333333334
2023-06-26T14:09:57.370Z,739
2023-06-26T14:12:57.135Z,916
2023-06-26T14:15:57.843Z,851.6666666666666
2023-06-26T14:18:57.953Z,929.3333333333334
2023-06-26T14:21:57.033Z,930
2023-06-26T14:24:57.104Z,811.6666666666666
2023-06-26T14:27:57.125Z,847.3333333333334
2023-06-26T14:30:57.443Z,929.6666666666666
2023-06-26T14:33:57.511Z,942.3333333333334
2023-06-26T14:36:57.626Z,927.3333333333334
2023-06-26T14:39:57.510Z,911
2023-06-26T14:42:57.482Z,910
2023-06-26T14:45:57.575Z,871
2023-06-26T14:48:57.465Z,810
2023-06-26T14:51:57.528Z,839
2023-06-26T14:54:57.905Z,777.6666666666666
2023-06-26T14:57:58.429Z,765.3333333333334
2023-06-26T15:00:56.911Z,771
2023-06-26T15:03:57.261Z,807.6666666666666
2023-06-26T15:06:58.221Z,837
2023-06-26T15:09:57.121Z,707
2023-06-26T15:12:57.086Z,768.6666666666666
2023-06-26T15:15:57.530Z,718
2023-06-26T15:18:57.388Z,708.3333333333334
2023-06-26T15:21:56.628Z,722.6666666666666
2023-06-26T15:24:57.598Z,723.3333333333334
2023-06-26T15:27:57.155Z,748.6666666666666
2023-06-26T15:30:57.350Z,710
2023-06-26T15:33:57.891Z,703.3333333333334
2023-06-26T15:36:57.198Z,722.3333333333334
2023-06-26T15:39:57.411Z,734.6666666666666
2023-06-26T15:42:57.731Z,780.6666666666666
2023-06-26T15:45:57.752Z,800
2023-06-26T15:48:57.164Z,786
2023-06-26T15:51:57.403Z,743
2023-06-26T15:54:57.835Z,726
2023-06-26T15:57:57.164Z,726.6666666666666
2023-06-26T16:00:58.255Z,732.6666666666666
2023-06-26T16:03:57.342Z,771
2023-06-26T16:06:58.377Z,776.3333333333334
2023-06-26T16:09:58.254Z,763
2023-06-26T16:12:58.133Z,742.6666666666666
2023-06-26T16:15:57.703Z,796
2023-06-26T16:18:57.225Z,781.6666666666666
2023-06-26T16:21:57.426Z,803.3333333333334
2023-06-26T16:24:58.060Z,783
2023-06-26T16:27:58.043Z,716.6666666666666
2023-06-26T16:30:58.040Z,694
2023-06-26T16:33:57.567Z,710.3333333333334
2023-06-26T16:36:58.033Z,670.6666666666666
2023-06-26T16:39:57.785Z,637.3333333333334
2023-06-26T16:42:57.219Z,623.6666666666666
2023-06-26T16:45:57.902Z,688.6666666666666
2023-06-26T16:48:57.341Z,670.3333333333334
2023-06-26T16:51:58.265Z,696.6666666666666
2023-06-26T16:54:58.369Z,685
2023-06-26T16:57:58.087Z,649.6666666666666
2023-06-26T17:00:59.233Z,641
2023-06-26T17:03:57.253Z,568.6666666666666
2023-06-26T17:06:57.341Z,557.3333333333334
2023-06-26T17:09:57.484Z,576.6666666666666
2023-06-26T17:12:58.239Z,555.3333333333334
2023-06-26T17:15:57.360Z,567.3333333333334
2023-06-26T17:18:57.380Z,539
2023-06-26T17:21:57.415Z,517
2023-06-26T17:24:57.359Z,493
2023-06-26T17:27:58.004Z,464.3333333333333
2023-06-26T17:30:58.272Z,475
2023-06-26T17:33:57.986Z,473.3333333333333
2023-06-26T17:36:57.543Z,475
2023-06-26T17:39:57.936Z,515.6666666666666
2023-06-26T17:42:58.095Z,523.3333333333334
2023-06-26T17:45:57.729Z,523
2023-06-26T17:48:57.883Z,514.6666666666666
2023-06-26T17:51:58.064Z,502.3333333333333
2023-06-26T17:54:58.154Z,485.3333333333333
2023-06-26T17:57:57.316Z,458.6666666666667
2023-06-26T18:00:57.794Z,437
2023-06-26T18:03:57.563Z,407
2023-06-26T18:06:57.877Z,381.3333333333333
2023-06-26T18:09:57.289Z,353
2023-06-26T18:12:57.859Z,324.6666666666667
2023-06-26T18:15:57.828Z,310
2023-06-26T18:18:59.899Z,286.3333333333333
2023-06-26T18:21:57.773Z,269.6666666666667
2023-06-26T18:24:58.013Z,256.6666666666667
2023-06-26T18:27:57.602Z,235.33333333333334
2023-06-26T18:30:58.111Z,212.33333333333334
2023-06-26T18:33:57.658Z,194
2023-06-26T18:36:57.065Z,182
2023-06-26T18:39:57.594Z,170.66666666666666
2023-06-26T18:42:58.237Z,168.66666666666666
2023-06-26T18:45:58.040Z,166.33333333333334
2023-06-26T18:48:57.055Z,161.33333333333334
2023-06-26T18:51:57.656Z,149.33333333333334
2023-06-26T18:54:57.292Z,135.33333333333334
2023-06-26T18:57:57.024Z,122.66666666666667
2023-06-26T19:01:25.783Z,97.66666666666667
2023-06-26T19:03:57.766Z,82
2023-06-26T19:06:57.901Z,62.666666666666664
2023-06-26T19:09:57.216Z,46.666666666666664
2023-06-26T19:12:57.204Z,32.666666666666664
2023-06-26T19:15:57.408Z,26.666666666666668
2023-06-26T19:18:58.716Z,19.666666666666668
2023-06-26T19:21:57.272Z,16
2023-06-26T19:24:57.461Z,11.666666666666666
2023-06-26T19:27:56.940Z,10.333333333333334
2023-06-26T19:30:57.262Z,6.666666666666667
2023-06-26T19:33:56.908Z,7
2023-06-26T19:36:57.312Z,5
2023-06-26T19:39:58.878Z,4
2023-06-26T19:42:58.299Z,3
2023-06-26T19:45:59.191Z,0
2023-06-26T19:48:57.285Z,0.6666666666666666
2023-06-26T19:51:57.756Z,3.6666666666666665
2023-06-26T19:54:57.561Z,1.6666666666666667
2023-06-26T19:57:57.777Z,1
2023-06-26T20:00:58.590Z,3
2023-06-26T20:03:57.764Z,0.6666666666666666
2023-06-26T20:06:58.132Z,0
2023-06-26T20:09:58.523Z,0
2023-06-26T20:12:57.223Z,0
2023-06-26T20:15:57.751Z,0
2023-06-26T20:18:57.236Z,0.3333333333333333
2023-06-26T20:21:57.918Z,0
2023-06-26T20:24:57.880Z,0.6666666666666666
2023-06-26T20:27:57.845Z,0.6666666666666666
2023-06-26T20:30:57.730Z,0
2023-06-26T20:33:57.716Z,1
2023-06-26T20:36:57.841Z,0.6666666666666666
2023-06-26T20:39:57.317Z,0
2023-06-26T20:42:57.776Z,0
2023-06-26T20:45:57.723Z,0
2023-06-26T20:48:57.714Z,0.3333333333333333
2023-06-26T20:51:57.061Z,0.6666666666666666
2023-06-26T20:54:57.303Z,2
2023-06-26T20:57:57.614Z,0.3333333333333333
2023-06-26T21:00:58.340Z,0
2023-06-26T21:03:57.959Z,0.3333333333333333
2023-06-26T21:06:57.675Z,0
2023-06-26T21:09:57.392Z,1.3333333333333333
2023-06-26T21:12:57.032Z,0
2023-06-26T21:15:57.759Z,1
2023-06-26T21:18:57.528Z,0.6666666666666666
2023-06-26T21:21:57.667Z,0.3333333333333333
2023-06-26T21:24:57.946Z,0
2023-06-26T21:27:57.829Z,1.3333333333333333
2023-06-26T21:30:57.965Z,0.3333333333333333
2023-06-26T21:33:57.276Z,0
2023-06-26T21:36:57.820Z,1
2023-06-26T21:39:57.348Z,0.3333333333333333
2023-06-26T21:42:56.816Z,0
2023-06-26T21:45:57.888Z,0
2023-06-26T21:48:56.900Z,0
2023-06-26T21:51:57.649Z,0.6666666666666666
2023-06-26T21:54:57.040Z,0
2023-06-26T21:57:56.975Z,0.3333333333333333
2023-06-26T22:00:58.382Z,1
2023-06-26T22:03:57.304Z,0.6666666666666666
2023-06-26T22:06:57.326Z,0
2023-06-26T22:09:58.175Z,0
2023-06-26T22:12:57.552Z,4
2023-06-26T22:15:57.100Z,0
2023-06-26T22:18:57.244Z,0.6666666666666666
2023-06-26T22:21:57.239Z,0.6666666666666666
2023-06-26T22:24:57.243Z,0.6666666666666666
2023-06-26T22:27:57.476Z,4
2023-06-26T22:30:58.007Z,0.3333333333333333
2023-06-26T22:33:57.043Z,0.3333333333333333
2023-06-26T22:36:57.551Z,2.3333333333333335
2023-06-26T22:40:57.082Z,0
2023-06-26T22:42:57.152Z,0.3333333333333333
2023-06-26T22:45:57.645Z,4.666666666666667
2023-06-26T22:48:57.041Z,0.3333333333333333
2023-06-26T22:51:58.106Z,0.6666666666666666
2023-06-26T22:54:57.823Z,0
2023-06-26T22:57:56.801Z,0.6666666666666666
2023-06-26T23:00:57.747Z,0.6666666666666666
2023-06-26T23:03:57.475Z,0
2023-06-26T23:06:57.663Z,0
2023-06-26T23:09:58.002Z,2
2023-06-26T23:12:56.890Z,0
2023-06-26T23:15:56.992Z,3.6666666666666665
2023-06-26T23:18:57.903Z,0
2023-06-26T23:21:57.349Z,0.3333333333333333
2023-06-26T23:24:56.989Z,0.3333333333333333
2023-06-26T23:27:57.417Z,0
2023-06-26T23:30:57.644Z,0.3333333333333333
2023-06-26T23:33:57.172Z,2.6666666666666665
2023-06-26T23:36:57.451Z,0.3333333333333333
2023-06-26T23:39:57.939Z,0.3333333333333333
2023-06-26T23:42:57.184Z,0
2023-06-26T23:45:57.251Z,0
2023-06-26T23:48:57.108Z,0.3333333333333333
2023-06-26T23:51:57.502Z,0
2023-06-26T23:54:57.573Z,0.3333333333333333
2023-06-26T23:57:56.912Z,0
